Terminal Aerodrome Forecast
Issued by NWS

Home | Current Version | Previous Version | Text Only | Print | Product List | Glossary On
Versions: 1 2 3 4 5 6 7 8 9 10 11 12 13
000
FTUS45 KREV 252320
TAFTRK
TAF
KTRK 252320Z 2600/2624 26008KT P6SM BKN100
     FM260200 VRB04KT P6SM SCT100
     FM262000 23008KT P6SM SCT120=

USA.gov is the U.S. government's official web portal to all federal, state and local government web resources and services.